createdAt,value
2022-11-18T00:00:15.262Z,10.10
2022-11-18T00:02:43.284Z,10.10
2022-11-18T00:05:11.363Z,10.10
2022-11-18T00:07:39.440Z,10.00
2022-11-18T00:10:07.943Z,9.90
2022-11-18T00:12:53.730Z,10.00
2022-11-18T00:15:27.593Z,9.90
2022-11-18T00:17:58.492Z,9.80
2022-11-18T00:20:26.390Z,9.80
2022-11-18T00:22:54.433Z,9.80
2022-11-18T00:25:22.473Z,9.80
2022-11-18T00:27:50.415Z,9.80
2022-11-18T00:30:19.294Z,9.80
2022-11-18T00:32:48.569Z,9.90
2022-11-18T00:35:16.526Z,9.80
2022-11-18T00:37:44.583Z,9.90
2022-11-18T00:40:13.275Z,9.90
2022-11-18T00:42:52.528Z,10.10
2022-11-18T00:45:21.005Z,10.00
2022-11-18T00:47:50.670Z,9.80
2022-11-18T00:50:18.905Z,9.80
2022-11-18T00:52:46.963Z,9.80
2022-11-18T00:55:15.149Z,9.80
2022-11-18T00:57:43.282Z,9.70
2022-11-18T01:00:12.335Z,9.70
2022-11-18T01:02:40.236Z,9.70
2022-11-18T01:05:10.513Z,9.70
2022-11-18T01:07:38.441Z,9.70
2022-11-18T01:10:07.043Z,9.70
2022-11-18T01:12:54.411Z,9.60
2022-11-18T01:15:22.780Z,9.70
2022-11-18T01:17:51.472Z,9.70
2022-11-18T01:20:20.796Z,9.70
2022-11-18T01:22:48.806Z,9.80
2022-11-18T01:25:16.970Z,9.70
2022-11-18T01:27:44.996Z,9.70
2022-11-18T01:30:14.022Z,9.80
2022-11-18T01:32:42.073Z,10.00
2022-11-18T01:35:10.953Z,10.20
2022-11-18T01:37:40.507Z,10.10
2022-11-18T01:40:10.557Z,10.10
2022-11-18T01:42:39.046Z,10.00
2022-11-18T01:45:19.017Z,10.10
2022-11-18T01:47:52.187Z,10.10
2022-11-18T01:50:23.135Z,10.10
2022-11-18T01:52:53.853Z,10.00
2022-11-18T01:55:26.774Z,10.00
2022-11-18T01:58:03.145Z,9.90
2022-11-18T02:00:31.101Z,9.90
2022-11-18T02:03:00.695Z,10.00
2022-11-18T02:05:30.606Z,9.90
2022-11-18T11:08:53.479Z,7.20
2022-11-18T11:11:26.664Z,8.90
2022-11-18T11:14:01.424Z,9.00
2022-11-18T11:16:31.864Z,9.10
2022-11-18T11:19:03.825Z,9.20
2022-11-18T11:21:32.075Z,9.50
2022-11-18T11:24:01.379Z,9.50
2022-11-18T11:29:46.619Z,9.70
2022-11-18T11:32:26.793Z,9.70
2022-11-18T11:35:07.057Z,9.80
2022-11-18T11:37:52.106Z,9.70
2022-11-18T11:40:30.341Z,9.50
2022-11-18T11:43:23.237Z,9.60
2022-11-18T11:46:09.978Z,9.50
2022-11-18T11:48:51.123Z,9.50
2022-11-18T11:51:28.524Z,9.30
2022-11-18T11:54:14.924Z,9.20
2022-11-18T11:56:48.508Z,9.00
2022-11-18T11:59:25.895Z,9.00
2022-11-18T12:02:01.997Z,8.90
2022-11-18T12:04:38.664Z,9.00
2022-11-18T12:07:09.260Z,9.00
2022-11-18T12:09:52.773Z,9.00
2022-11-18T12:12:35.669Z,9.00
2022-11-18T12:15:13.142Z,9.10
2022-11-18T12:17:47.682Z,9.00
2022-11-18T12:20:39.080Z,9.00
2022-11-18T12:23:18.668Z,8.90
2022-11-18T12:26:09.715Z,8.80
2022-11-18T12:28:42.032Z,8.80
2022-11-18T12:31:43.080Z,8.80
2022-11-18T12:34:33.587Z,8.80
2022-11-18T12:37:35.030Z,8.80
2022-11-18T12:40:03.126Z,8.80
2022-11-18T12:42:59.319Z,8.80
2022-11-18T12:45:59.396Z,8.80
2022-11-18T12:48:45.005Z,8.70
2022-11-18T12:51:46.362Z,8.70
2022-11-18T12:54:31.099Z,8.80
2022-11-18T12:57:02.175Z,8.60
2022-11-18T12:59:33.444Z,8.50
2022-11-18T13:02:21.149Z,8.40
2022-11-18T13:05:05.936Z,8.30
2022-11-18T13:07:53.366Z,8.20
2022-11-18T13:10:25.500Z,8.10
2022-11-18T13:12:53.630Z,8.20
2022-11-18T13:15:39.530Z,8.20
2022-11-18T13:18:15.232Z,8.20
2022-11-18T13:20:44.189Z,8.20
2022-11-18T13:23:47.889Z,8.10
2022-11-18T13:26:20.662Z,8.10
2022-11-18T13:29:08.576Z,8.20
2022-11-18T13:31:43.846Z,8.30
2022-11-18T13:34:19.021Z,8.20
2022-11-18T13:36:48.553Z,8.20
2022-11-18T13:39:23.344Z,8.10
2022-11-18T13:42:02.390Z,8.10
2022-11-18T13:44:32.651Z,8.10
2022-11-18T13:47:07.695Z,8.10
2022-11-18T13:49:50.968Z,8.20
2022-11-18T13:52:22.387Z,8.20
2022-11-18T13:54:52.618Z,8.20
2022-11-18T13:57:23.817Z,8.20
2022-11-18T13:59:53.563Z,8.30
2022-11-18T14:02:22.393Z,8.30
2022-11-18T14:04:55.430Z,8.50
2022-11-18T14:07:34.013Z,8.50
2022-11-18T14:10:04.373Z,8.50
2022-11-18T14:12:34.004Z,8.70
2022-11-18T14:15:20.342Z,8.70
2022-11-18T14:17:53.004Z,8.60
2022-11-18T14:20:22.739Z,8.60
2022-11-18T14:22:54.969Z,8.60
2022-11-18T14:25:27.877Z,8.70
2022-11-18T14:27:57.153Z,8.70
2022-11-18T14:30:33.997Z,8.80
2022-11-18T14:33:21.358Z,8.70
2022-11-18T14:35:54.509Z,8.80
2022-11-18T14:38:57.465Z,8.90
2022-11-18T14:41:15.724Z,8.90
2022-11-18T14:43:46.221Z,8.80
2022-11-18T14:46:17.701Z,8.80
2022-11-18T14:48:46.927Z,8.90
2022-11-18T14:51:17.492Z,8.90
2022-11-18T14:53:45.983Z,8.90
2022-11-18T14:56:18.946Z,8.90
2022-11-18T14:58:47.061Z,8.90
2022-11-18T15:01:15.285Z,8.90
2022-11-18T15:03:43.249Z,8.70
2022-11-18T15:06:14.670Z,8.80
2022-11-18T15:08:45.880Z,8.80
2022-11-18T15:11:14.759Z,8.80
2022-11-18T15:13:43.572Z,8.70
2022-11-18T15:16:16.157Z,8.70
2022-11-18T15:18:44.811Z,8.70
2022-11-18T15:21:13.070Z,8.60
2022-11-18T15:23:41.428Z,8.60
2022-11-18T15:26:19.721Z,8.60
2022-11-18T15:28:48.491Z,8.50
2022-11-18T15:31:16.761Z,8.50
2022-11-18T15:33:45.026Z,8.50
2022-11-18T15:36:15.455Z,8.50
2022-11-18T15:38:43.849Z,8.60
2022-11-18T15:41:18.228Z,8.50
2022-11-18T15:43:46.522Z,8.40
2022-11-18T15:46:15.885Z,8.50
2022-11-18T15:48:44.443Z,8.60
2022-11-18T15:51:13.673Z,8.50
2022-11-18T15:53:42.077Z,8.50
2022-11-18T15:56:29.067Z,8.50
2022-11-18T15:58:58.637Z,8.50
2022-11-18T16:01:28.623Z,8.60
2022-11-18T16:03:56.927Z,8.70
2022-11-18T16:06:25.700Z,8.60
2022-11-18T16:08:59.552Z,8.60
2022-11-18T16:11:48.292Z,8.60
2022-11-18T16:14:18.971Z,8.60
2022-11-18T16:16:48.557Z,8.60
2022-11-18T16:19:19.311Z,8.50
2022-11-18T16:21:48.650Z,8.50
2022-11-18T16:24:18.493Z,8.70
2022-11-18T16:26:48.730Z,8.70
2022-11-18T16:29:17.653Z,8.70
2022-11-18T16:31:50.533Z,8.70
2022-11-18T16:34:20.515Z,8.60
2022-11-18T16:36:50.063Z,8.60
2022-11-18T16:39:20.599Z,8.60
2022-11-18T16:41:51.729Z,8.60
2022-11-18T16:44:20.538Z,8.60
2022-11-18T16:46:49.827Z,8.60
2022-11-18T16:49:19.613Z,8.70
2022-11-18T16:51:49.479Z,8.80
2022-11-18T16:54:19.428Z,8.70
2022-11-18T16:56:50.390Z,8.70
2022-11-18T16:59:21.651Z,8.60
2022-11-18T17:01:50.738Z,8.60
2022-11-18T17:04:18.938Z,8.50
2022-11-18T17:06:47.351Z,8.60
2022-11-18T17:09:17.787Z,8.60
2022-11-18T17:11:46.347Z,8.50
2022-11-18T17:14:16.145Z,8.50
2022-11-18T17:16:44.236Z,8.50
2022-11-18T17:19:15.742Z,8.50
2022-11-18T17:21:44.899Z,8.50
2022-11-18T17:24:14.741Z,8.50
2022-11-18T17:26:43.704Z,8.50
2022-11-18T17:29:12.595Z,8.50
2022-11-18T17:31:43.132Z,8.60
2022-11-18T17:34:12.926Z,8.50
2022-11-18T17:36:41.410Z,8.60
2022-11-18T17:39:11.788Z,8.60
2022-11-18T17:41:57.696Z,8.70
2022-11-18T17:44:25.842Z,8.50
2022-11-18T17:46:55.209Z,8.50
2022-11-18T17:49:23.141Z,8.50
2022-11-18T17:51:52.380Z,8.50
2022-11-18T18:00:06.295Z,8.50
2022-11-18T18:02:35.532Z,8.50
2022-11-18T18:05:03.558Z,8.50
2022-11-18T18:07:31.522Z,8.50
2022-11-18T18:09:59.517Z,8.50
2022-11-18T18:12:45.233Z,8.50
2022-11-18T18:15:13.180Z,8.50
2022-11-18T18:17:42.541Z,8.60
2022-11-18T18:20:10.952Z,8.50
2022-11-18T18:22:38.955Z,8.40
2022-11-18T18:25:08.077Z,8.40
2022-11-18T18:27:36.124Z,8.40
2022-11-18T18:30:04.362Z,8.60
2022-11-18T18:32:32.587Z,8.60
2022-11-18T18:35:02.089Z,8.50
2022-11-18T18:37:29.991Z,8.30
2022-11-18T18:39:58.102Z,8.20
2022-11-18T18:42:26.187Z,8.20
2022-11-18T18:45:11.461Z,8.10
2022-11-18T18:47:39.498Z,7.90
2022-11-18T18:50:09.167Z,7.80
2022-11-18T18:52:37.072Z,7.90
2022-11-18T18:55:05.613Z,7.90
2022-11-18T18:57:33.603Z,7.90
2022-11-18T19:00:01.696Z,7.90
2022-11-18T19:02:29.781Z,7.90
2022-11-18T19:04:57.909Z,7.90
2022-11-18T19:07:31.241Z,7.90
2022-11-18T19:09:59.519Z,7.90
2022-11-18T19:12:51.641Z,7.90
2022-11-18T19:15:23.129Z,7.80
2022-11-18T19:17:51.181Z,7.70
2022-11-18T19:20:36.561Z,7.70
2022-11-18T19:23:10.359Z,7.60
2022-11-18T19:25:38.927Z,7.70
2022-11-18T19:28:06.882Z,7.80
2022-11-18T19:30:35.282Z,7.80
2022-11-18T19:33:04.510Z,7.80
2022-11-18T19:35:32.703Z,7.90
2022-11-18T19:38:00.853Z,7.90
2022-11-18T19:40:30.494Z,7.80
2022-11-18T19:42:58.549Z,7.80
2022-11-18T19:45:28.102Z,7.80
2022-11-18T19:47:56.593Z,7.80
2022-11-18T19:50:24.641Z,7.90
2022-11-18T19:52:52.569Z,7.80
2022-11-18T19:55:20.623Z,7.80
2022-11-18T19:57:49.929Z,7.70
2022-11-18T20:00:19.506Z,7.70
2022-11-18T20:02:47.550Z,7.70
2022-11-18T20:05:32.894Z,7.60
2022-11-18T20:08:00.938Z,7.70
2022-11-18T20:10:28.882Z,7.50
2022-11-18T20:12:58.316Z,7.50
2022-11-18T20:15:26.317Z,7.50
2022-11-18T20:17:54.386Z,7.50
2022-11-18T20:20:22.312Z,7.40
2022-11-18T20:22:50.257Z,7.30
2022-11-18T20:25:18.478Z,7.20
2022-11-18T20:27:46.369Z,7.20
2022-11-18T20:30:17.502Z,7.10
2022-11-18T20:32:46.255Z,7.00
2022-11-18T20:35:14.381Z,7.00
2022-11-18T20:37:43.496Z,7.10
2022-11-18T20:40:12.088Z,7.10
2022-11-18T20:42:57.544Z,7.10
2022-11-18T20:45:26.826Z,7.00
2022-11-18T20:47:54.685Z,6.90
2022-11-18T20:50:22.850Z,6.80
2022-11-18T20:52:50.741Z,6.90
2022-11-18T20:55:18.660Z,6.80
2022-11-18T20:57:47.093Z,6.70
2022-11-18T21:00:15.694Z,6.70
2022-11-18T21:02:44.919Z,6.70
2022-11-18T21:05:13.002Z,6.70
2022-11-18T21:07:41.129Z,6.70
2022-11-18T21:10:09.825Z,6.70
2022-11-18T21:12:58.123Z,6.60
2022-11-18T21:15:25.041Z,6.60
2022-11-18T21:17:54.584Z,6.50
2022-11-18T21:20:39.459Z,6.50
2022-11-18T21:23:07.380Z,6.50
2022-11-18T21:25:35.667Z,6.40
2022-11-18T21:28:04.728Z,6.40
2022-11-18T21:30:32.776Z,6.50
2022-11-18T21:33:02.044Z,6.50
2022-11-18T21:35:32.032Z,6.50
2022-11-18T21:37:59.999Z,6.50
2022-11-18T21:40:27.908Z,6.50
2022-11-18T21:42:56.221Z,6.50
2022-11-18T21:45:24.373Z,6.60
2022-11-18T21:47:52.226Z,6.80
2022-11-18T21:50:21.667Z,6.80
2022-11-18T21:52:49.541Z,6.90
2022-11-18T21:55:17.634Z,6.90
2022-11-18T21:57:45.824Z,7.00
2022-11-18T22:00:14.698Z,7.00
2022-11-18T22:02:42.765Z,7.00
2022-11-18T22:05:10.691Z,7.20
2022-11-18T22:07:40.358Z,7.10
2022-11-18T22:10:09.031Z,7.20
2022-11-18T22:12:36.911Z,7.10
2022-11-18T22:15:05.241Z,7.30
2022-11-18T22:17:33.088Z,7.50
2022-11-18T22:20:01.284Z,7.40
2022-11-18T22:22:29.146Z,7.50
2022-11-18T22:24:58.441Z,7.50
2022-11-18T22:27:26.502Z,7.50
2022-11-18T22:29:54.422Z,7.40
2022-11-18T22:32:22.318Z,7.30
2022-11-18T22:34:51.908Z,7.30
2022-11-18T22:37:19.909Z,7.30
2022-11-18T22:39:47.956Z,7.40
2022-11-18T22:42:34.723Z,7.20
2022-11-18T22:45:02.755Z,7.20
2022-11-18T22:47:30.762Z,7.10
2022-11-18T22:49:58.866Z,7.10
2022-11-18T22:52:26.952Z,7.20
2022-11-18T22:54:54.826Z,7.30
2022-11-18T22:57:24.526Z,7.20
2022-11-18T22:59:52.396Z,7.20
2022-11-18T23:02:20.423Z,7.20
2022-11-18T23:04:48.404Z,7.30
2022-11-18T23:07:16.450Z,7.30
2022-11-18T23:09:44.404Z,7.30
2022-11-18T23:12:29.867Z,7.30
2022-11-18T23:14:59.399Z,7.30
2022-11-18T23:17:27.252Z,7.40
2022-11-18T23:19:55.284Z,7.40
2022-11-18T23:22:23.180Z,7.40
2022-11-18T23:24:51.168Z,7.40
2022-11-18T23:27:19.035Z,7.50
2022-11-18T23:29:47.059Z,7.60
2022-11-18T23:32:16.299Z,7.60
2022-11-18T23:34:44.157Z,7.50
2022-11-18T23:37:12.152Z,7.50
2022-11-18T23:39:40.178Z,7.60
2022-11-18T23:42:08.195Z,7.70
2022-11-18T23:44:50.318Z,7.70
2022-11-18T23:47:20.058Z,7.60
2022-11-18T23:49:48.072Z,7.70
2022-11-18T23:52:16.115Z,7.70
2022-11-18T23:54:44.141Z,7.80
2022-11-18T23:57:12.299Z,7.80
2022-11-18T23:59:40.366Z,7.80
